sensor_id;sensor_type;location;lat;lon;timestamp;pressure;altitude;pressure_sealevel;temperature;humidity
49627;BME280;35527;54.616;39.786;2022-08-11T00:01:32;100734.47;;;16.66;100.00
49627;BME280;35527;54.616;39.786;2022-08-11T00:04:38;100721.94;;;16.55;100.00
49627;BME280;35527;54.616;39.786;2022-08-11T00:07:53;100725.53;;;16.53;100.00
49627;BME280;35527;54.616;39.786;2022-08-11T00:11:03;100724.75;;;16.51;100.00
49627;BME280;35527;54.616;39.786;2022-08-11T00:14:20;100738.22;;;16.60;100.00
49627;BME280;35527;54.616;39.786;2022-08-11T00:17:29;100742.69;;;16.58;100.00
49627;BME280;35527;54.616;39.786;2022-08-11T00:20:35;100737.00;;;16.67;100.00
49627;BME280;35527;54.616;39.786;2022-08-11T00:23:45;100724.91;;;16.65;100.00
49627;BME280;35527;54.616;39.786;2022-08-11T00:26:53;100733.16;;;16.75;100.00
49627;BME280;35527;54.616;39.786;2022-08-11T00:29:57;100748.47;;;16.82;100.00
49627;BME280;35527;54.616;39.786;2022-08-11T00:33:01;100733.72;;;16.81;100.00
49627;BME280;35527;54.616;39.786;2022-08-11T00:36:05;100728.50;;;16.81;100.00
49627;BME280;35527;54.616;39.786;2022-08-11T00:39:10;100740.50;;;16.85;100.00
49627;BME280;35527;54.616;39.786;2022-08-11T00:52:35;100725.97;;;16.97;100.00
49627;BME280;35527;54.616;39.786;2022-08-11T01:19:50;100758.53;;;16.73;100.00
49627;BME280;35527;54.616;39.786;2022-08-11T01:30:16;100764.13;;;16.65;100.00
49627;BME280;35527;54.616;39.786;2022-08-11T01:37:11;100766.19;;;16.58;100.00
49627;BME280;35527;54.616;39.786;2022-08-11T01:47:38;100783.16;;;16.69;100.00
49627;BME280;35527;54.616;39.786;2022-08-11T01:54:31;100794.94;;;16.77;100.00
49627;BME280;35527;54.616;39.786;2022-08-11T02:01:05;100792.47;;;16.74;100.00
49627;BME280;35527;54.616;39.786;2022-08-11T02:04:28;100808.41;;;16.87;100.00
49627;BME280;35527;54.616;39.786;2022-08-11T02:14:48;100797.78;;;16.54;100.00
49627;BME280;35527;54.616;39.786;2022-08-11T02:18:07;100813.72;;;16.66;100.00
49627;BME280;35527;54.616;39.786;2022-08-11T02:21:26;100817.03;;;16.70;100.00
49627;BME280;35527;54.616;39.786;2022-08-11T02:25:07;100810.63;;;16.77;100.00
49627;BME280;35527;54.616;39.786;2022-08-11T02:31:44;100805.31;;;16.79;100.00
49627;BME280;35527;54.616;39.786;2022-08-11T02:35:27;100811.94;;;16.86;100.00
49627;BME280;35527;54.616;39.786;2022-08-11T02:42:15;100812.13;;;17.00;100.00
49627;BME280;35527;54.616;39.786;2022-08-11T02:48:52;100814.63;;;17.02;100.00
49627;BME280;35527;54.616;39.786;2022-08-11T02:56:05;100806.78;;;17.02;100.00
49627;BME280;35527;54.616;39.786;2022-08-11T02:59:36;100816.34;;;17.03;100.00
49627;BME280;35527;54.616;39.786;2022-08-11T03:09:26;100811.94;;;17.38;100.00
49627;BME280;35527;54.616;39.786;2022-08-11T03:12:56;100814.75;;;17.51;100.00
49627;BME280;35527;54.616;39.786;2022-08-11T03:16:36;100810.06;;;17.58;100.00
49627;BME280;35527;54.616;39.786;2022-08-11T03:30:13;100784.81;;;17.56;100.00
49627;BME280;35527;54.616;39.786;2022-08-11T03:33:47;100793.53;;;17.73;100.00
49627;BME280;35527;54.616;39.786;2022-08-11T03:41:04;100780.22;;;17.77;100.00
49627;BME280;35527;54.616;39.786;2022-08-11T03:48:22;100797.00;;;18.07;100.00
49627;BME280;35527;54.616;39.786;2022-08-11T03:51:44;100791.16;;;18.49;100.00
49627;BME280;35527;54.616;39.786;2022-08-11T03:55:10;100792.25;;;19.07;100.00
49627;BME280;35527;54.616;39.786;2022-08-11T03:58:41;100777.72;;;20.57;100.00
49627;BME280;35527;54.616;39.786;2022-08-11T04:08:43;100762.34;;;22.65;100.00
49627;BME280;35527;54.616;39.786;2022-08-11T04:12:08;100759.94;;;22.98;100.00
49627;BME280;35527;54.616;39.786;2022-08-11T04:36:44;100763.00;;;25.02;92.04
49627;BME280;35527;54.616;39.786;2022-08-11T05:12:46;100762.72;;;25.47;89.62
49627;BME280;35527;54.616;39.786;2022-08-11T05:15:53;100754.44;;;26.21;84.11
49627;BME280;35527;54.616;39.786;2022-08-11T05:19:18;100765.78;;;26.33;84.22
49627;BME280;35527;54.616;39.786;2022-08-11T05:22:47;100741.16;;;26.02;83.43
49627;BME280;35527;54.616;39.786;2022-08-11T05:26:13;100763.97;;;26.82;81.86
49627;BME280;35527;54.616;39.786;2022-08-11T05:29:42;100761.06;;;27.70;75.63
49627;BME280;35527;54.616;39.786;2022-08-11T05:33:50;100758.84;;;27.93;72.80
49627;BME280;35527;54.616;39.786;2022-08-11T05:37:33;100752.81;;;28.18;71.74
49627;BME280;35527;54.616;39.786;2022-08-11T05:40:49;100757.91;;;28.12;73.76
49627;BME280;35527;54.616;39.786;2022-08-11T05:44:17;100746.00;;;29.22;67.46
49627;BME280;35527;54.616;39.786;2022-08-11T05:47:41;100766.34;;;29.49;61.71
49627;BME280;35527;54.616;39.786;2022-08-11T05:51:03;100761.56;;;28.82;66.30
49627;BME280;35527;54.616;39.786;2022-08-11T05:54:29;100748.81;;;28.50;68.09
49627;BME280;35527;54.616;39.786;2022-08-11T05:58:02;100754.81;;;29.82;59.89
49627;BME280;35527;54.616;39.786;2022-08-11T06:01:06;100749.78;;;30.22;58.90
49627;BME280;35527;54.616;39.786;2022-08-11T06:04:15;100755.69;;;29.91;59.63
49627;BME280;35527;54.616;39.786;2022-08-11T06:07:27;100761.34;;;29.19;61.17
49627;BME280;35527;54.616;39.786;2022-08-11T06:10:36;100735.84;;;29.17;60.17
49627;BME280;35527;54.616;39.786;2022-08-11T06:13:44;100735.94;;;29.76;58.92
49627;BME280;35527;54.616;39.786;2022-08-11T06:16:49;100746.66;;;29.50;59.00
49627;BME280;35527;54.616;39.786;2022-08-11T06:20:02;100749.34;;;29.92;57.10
49627;BME280;35527;54.616;39.786;2022-08-11T06:23:06;100747.28;;;30.37;55.71
49627;BME280;35527;54.616;39.786;2022-08-11T06:26:14;100752.34;;;31.45;49.83
49627;BME280;35527;54.616;39.786;2022-08-11T06:29:18;100723.00;;;31.12;50.16
49627;BME280;35527;54.616;39.786;2022-08-11T06:32:26;100736.75;;;30.92;50.70
49627;BME280;35527;54.616;39.786;2022-08-11T06:39:31;100749.94;;;30.69;50.03
49627;BME280;35527;54.616;39.786;2022-08-11T06:46:07;100750.28;;;30.74;52.65
49627;BME280;35527;54.616;39.786;2022-08-11T06:49:14;100745.84;;;31.78;48.62
49627;BME280;35527;54.616;39.786;2022-08-11T06:52:37;100725.84;;;31.97;45.57
49627;BME280;35527;54.616;39.786;2022-08-11T06:55:44;100747.72;;;32.55;44.91
49627;BME280;35527;54.616;39.786;2022-08-11T06:59:09;100748.63;;;32.85;42.83
49627;BME280;35527;54.616;39.786;2022-08-11T07:02:56;100760.75;;;32.96;41.91
49627;BME280;35527;54.616;39.786;2022-08-11T07:06:18;100747.75;;;32.01;43.85
49627;BME280;35527;54.616;39.786;2022-08-11T07:13:13;100713.09;;;31.29;45.73
49627;BME280;35527;54.616;39.786;2022-08-11T07:16:36;100750.84;;;31.81;43.80
49627;BME280;35527;54.616;39.786;2022-08-11T07:19:49;100746.25;;;32.67;41.49
49627;BME280;35527;54.616;39.786;2022-08-11T07:23:16;100749.56;;;32.55;41.96
49627;BME280;35527;54.616;39.786;2022-08-11T07:26:48;100745.94;;;32.85;41.90
49627;BME280;35527;54.616;39.786;2022-08-11T07:30:11;100738.63;;;31.79;42.74
49627;BME280;35527;54.616;39.786;2022-08-11T07:33:22;100745.84;;;32.93;41.33
49627;BME280;35527;54.616;39.786;2022-08-11T07:36:29;100739.78;;;34.31;39.53
49627;BME280;35527;54.616;39.786;2022-08-11T07:39:35;100731.97;;;33.79;38.29
49627;BME280;35527;54.616;39.786;2022-08-11T07:42:41;100743.81;;;33.84;39.37
49627;BME280;35527;54.616;39.786;2022-08-11T07:45:48;100750.88;;;34.99;36.90
49627;BME280;35527;54.616;39.786;2022-08-11T07:49:10;100749.44;;;33.90;38.04
49627;BME280;35527;54.616;39.786;2022-08-11T07:52:33;100733.75;;;30.55;45.39
49627;BME280;35527;54.616;39.786;2022-08-11T07:55:40;100736.59;;;30.37;48.23
49627;BME280;35527;54.616;39.786;2022-08-11T07:58:45;100734.19;;;30.01;49.42
49627;BME280;35527;54.616;39.786;2022-08-11T08:02:14;100733.47;;;32.08;42.90
49627;BME280;35527;54.616;39.786;2022-08-11T08:05:36;100735.56;;;31.98;42.47
49627;BME280;35527;54.616;39.786;2022-08-11T08:08:58;100736.28;;;32.38;40.87
49627;BME280;35527;54.616;39.786;2022-08-11T08:12:22;100735.25;;;32.16;41.51
49627;BME280;35527;54.616;39.786;2022-08-11T08:15:48;100747.41;;;31.64;43.34
49627;BME280;35527;54.616;39.786;2022-08-11T08:19:16;100727.44;;;31.75;42.08
49627;BME280;35527;54.616;39.786;2022-08-11T08:22:20;100725.59;;;30.48;44.99
49627;BME280;35527;54.616;39.786;2022-08-11T08:25:29;100704.69;;;30.84;44.50
49627;BME280;35527;54.616;39.786;2022-08-11T08:28:36;100736.25;;;31.53;43.03
49627;BME280;35527;54.616;39.786;2022-08-11T08:31:41;100712.72;;;30.51;44.42
49627;BME280;35527;54.616;39.786;2022-08-11T08:34:49;100734.88;;;31.65;43.09
49627;BME280;35527;54.616;39.786;2022-08-11T08:37:52;100724.25;;;32.11;40.74
49627;BME280;35527;54.616;39.786;2022-08-11T08:40:58;100726.34;;;31.61;42.46
49627;BME280;35527;54.616;39.786;2022-08-11T08:44:07;100718.75;;;32.04;39.83
49627;BME280;35527;54.616;39.786;2022-08-11T08:47:30;100717.13;;;32.49;39.41
49627;BME280;35527;54.616;39.786;2022-08-11T08:50:56;100730.06;;;33.58;38.22
49627;BME280;35527;54.616;39.786;2022-08-11T08:54:32;100719.19;;;34.95;35.16
49627;BME280;35527;54.616;39.786;2022-08-11T08:57:41;100714.81;;;34.16;36.06
49627;BME280;35527;54.616;39.786;2022-08-11T09:00:46;100732.06;;;32.21;38.88
49627;BME280;35527;54.616;39.786;2022-08-11T09:03:52;100709.31;;;32.17;38.65
49627;BME280;35527;54.616;39.786;2022-08-11T09:06:58;100734.81;;;32.73;38.10
49627;BME280;35527;54.616;39.786;2022-08-11T09:10:04;100729.25;;;33.42;37.16
49627;BME280;35527;54.616;39.786;2022-08-11T09:13:08;100714.72;;;33.37;36.54
49627;BME280;35527;54.616;39.786;2022-08-11T09:16:11;100731.72;;;33.59;36.64
49627;BME280;35527;54.616;39.786;2022-08-11T09:19:16;100732.22;;;32.65;36.05
49627;BME280;35527;54.616;39.786;2022-08-11T09:22:23;100715.28;;;32.42;37.50
49627;BME280;35527;54.616;39.786;2022-08-11T09:25:46;100730.69;;;31.15;40.10
49627;BME280;35527;54.616;39.786;2022-08-11T09:29:09;100732.34;;;29.51;43.77
49627;BME280;35527;54.616;39.786;2022-08-11T09:32:19;100716.44;;;29.07;44.88
49627;BME280;35527;54.616;39.786;2022-08-11T09:35:27;100728.53;;;29.19;45.11
49627;BME280;35527;54.616;39.786;2022-08-11T09:38:31;100706.31;;;29.53;44.04
49627;BME280;35527;54.616;39.786;2022-08-11T09:41:53;100721.56;;;30.68;41.56
49627;BME280;35527;54.616;39.786;2022-08-11T09:45:03;100711.03;;;30.67;40.30
49627;BME280;35527;54.616;39.786;2022-08-11T09:48:07;100721.53;;;31.57;38.73
49627;BME280;35527;54.616;39.786;2022-08-11T09:51:11;100721.44;;;32.04;37.55
49627;BME280;35527;54.616;39.786;2022-08-11T09:54:17;100713.91;;;31.77;37.93
49627;BME280;35527;54.616;39.786;2022-08-11T09:57:25;100716.81;;;31.98;36.87
49627;BME280;35527;54.616;39.786;2022-08-11T10:00:48;100708.91;;;31.74;36.65
49627;BME280;35527;54.616;39.786;2022-08-11T10:04:08;100728.22;;;30.97;37.78
49627;BME280;35527;54.616;39.786;2022-08-11T10:07:15;100715.06;;;30.79;38.48
49627;BME280;35527;54.616;39.786;2022-08-11T10:10:23;100705.69;;;30.83;38.74
49627;BME280;35527;54.616;39.786;2022-08-11T10:13:32;100712.47;;;30.04;40.14
49627;BME280;35527;54.616;39.786;2022-08-11T10:17:05;100739.44;;;29.34;41.45
49627;BME280;35527;54.616;39.786;2022-08-11T10:20:10;100723.06;;;29.63;41.93
49627;BME280;35527;54.616;39.786;2022-08-11T10:23:18;100705.97;;;29.98;40.38
49627;BME280;35527;54.616;39.786;2022-08-11T10:26:44;100707.53;;;30.25;39.97
49627;BME280;35527;54.616;39.786;2022-08-11T10:29:58;100719.16;;;30.00;39.99
49627;BME280;35527;54.616;39.786;2022-08-11T10:33:22;100724.91;;;28.58;43.97
49627;BME280;35527;54.616;39.786;2022-08-11T10:36:47;100717.44;;;28.26;45.43
49627;BME280;35527;54.616;39.786;2022-08-11T10:39:51;100725.59;;;29.04;43.93
49627;BME280;35527;54.616;39.786;2022-08-11T10:43:00;100707.44;;;29.84;41.64
49627;BME280;35527;54.616;39.786;2022-08-11T10:46:19;100716.22;;;30.27;39.94
49627;BME280;35527;54.616;39.786;2022-08-11T10:49:55;100711.84;;;30.67;38.95
49627;BME280;35527;54.616;39.786;2022-08-11T10:53:17;100721.72;;;30.91;38.18
49627;BME280;35527;54.616;39.786;2022-08-11T10:56:41;100718.53;;;30.96;37.64
49627;BME280;35527;54.616;39.786;2022-08-11T11:00:05;100707.69;;;30.24;38.45
49627;BME280;35527;54.616;39.786;2022-08-11T11:03:10;100698.31;;;30.12;39.62
49627;BME280;35527;54.616;39.786;2022-08-11T11:09:35;100695.50;;;30.21;38.64
49627;BME280;35527;54.616;39.786;2022-08-11T11:12:45;100708.44;;;29.41;40.35
49627;BME280;35527;54.616;39.786;2022-08-11T11:16:12;100694.31;;;28.88;41.36
49627;BME280;35527;54.616;39.786;2022-08-11T11:19:39;100670.09;;;29.34;41.39
49627;BME280;35527;54.616;39.786;2022-08-11T11:22:44;100696.28;;;29.89;39.95
49627;BME280;35527;54.616;39.786;2022-08-11T11:33:55;100654.19;;;29.67;39.26
49627;BME280;35527;54.616;39.786;2022-08-11T11:39:44;100699.16;;;28.93;41.25
49627;BME280;35527;54.616;39.786;2022-08-11T11:42:53;100703.97;;;28.63;42.70
49627;BME280;35527;54.616;39.786;2022-08-11T11:46:02;100701.09;;;28.39;43.94
49627;BME280;35527;54.616;39.786;2022-08-11T11:49:37;100690.44;;;28.57;42.47
49627;BME280;35527;54.616;39.786;2022-08-11T11:52:44;100700.34;;;28.90;41.91
49627;BME280;35527;54.616;39.786;2022-08-11T11:55:47;100688.03;;;28.71;41.75
49627;BME280;35527;54.616;39.786;2022-08-11T11:58:54;100692.16;;;28.92;39.70
49627;BME280;35527;54.616;39.786;2022-08-11T12:02:18;100675.78;;;29.05;39.85
49627;BME280;35527;54.616;39.786;2022-08-11T12:05:23;100685.06;;;29.35;39.34
49627;BME280;35527;54.616;39.786;2022-08-11T12:08:26;100681.72;;;29.67;39.07
49627;BME280;35527;54.616;39.786;2022-08-11T12:11:30;100683.22;;;29.70;38.31
49627;BME280;35527;54.616;39.786;2022-08-11T12:14:59;100690.88;;;29.22;39.06
49627;BME280;35527;54.616;39.786;2022-08-11T12:18:03;100671.47;;;28.86;40.92
49627;BME280;35527;54.616;39.786;2022-08-11T12:21:07;100686.94;;;28.56;40.89
49627;BME280;35527;54.616;39.786;2022-08-11T12:24:11;100676.75;;;28.34;41.51
49627;BME280;35527;54.616;39.786;2022-08-11T12:27:34;100676.28;;;28.20;41.76
49627;BME280;35527;54.616;39.786;2022-08-11T12:30:39;100668.91;;;28.32;42.33
49627;BME280;35527;54.616;39.786;2022-08-11T12:33:48;100663.53;;;28.42;41.82
49627;BME280;35527;54.616;39.786;2022-08-11T12:36:58;100682.03;;;28.07;42.61
49627;BME280;35527;54.616;39.786;2022-08-11T12:40:14;100662.94;;;27.67;43.45
49627;BME280;35527;54.616;39.786;2022-08-11T12:43:37;100677.63;;;27.71;45.66
49627;BME280;35527;54.616;39.786;2022-08-11T12:47:00;100668.03;;;27.78;43.17
49627;BME280;35527;54.616;39.786;2022-08-11T12:50:04;100635.63;;;27.47;42.70
49627;BME280;35527;54.616;39.786;2022-08-11T12:53:28;100675.75;;;27.81;41.96
49627;BME280;35527;54.616;39.786;2022-08-11T12:56:45;100683.13;;;27.42;45.00
49627;BME280;35527;54.616;39.786;2022-08-11T13:00:09;100659.84;;;27.06;43.83
49627;BME280;35527;54.616;39.786;2022-08-11T13:03:33;100638.75;;;27.05;44.98
49627;BME280;35527;54.616;39.786;2022-08-11T13:06:55;100668.41;;;27.65;44.64
49627;BME280;35527;54.616;39.786;2022-08-11T13:10:02;100657.28;;;27.52;42.53
49627;BME280;35527;54.616;39.786;2022-08-11T13:13:07;100651.13;;;27.24;44.25
49627;BME280;35527;54.616;39.786;2022-08-11T13:16:11;100668.00;;;27.42;44.12
49627;BME280;35527;54.616;39.786;2022-08-11T13:19:17;100671.38;;;27.34;44.73
49627;BME280;35527;54.616;39.786;2022-08-11T13:22:22;100655.66;;;27.13;44.16
49627;BME280;35527;54.616;39.786;2022-08-11T13:25:30;100663.28;;;27.36;44.00
49627;BME280;35527;54.616;39.786;2022-08-11T13:28:37;100666.66;;;27.56;42.95
49627;BME280;35527;54.616;39.786;2022-08-11T13:31:44;100645.50;;;27.36;42.68
49627;BME280;35527;54.616;39.786;2022-08-11T13:34:48;100655.31;;;27.26;43.39
49627;BME280;35527;54.616;39.786;2022-08-11T13:37:53;100642.97;;;26.98;43.46
49627;BME280;35527;54.616;39.786;2022-08-11T13:40:59;100656.88;;;26.82;44.76
49627;BME280;35527;54.616;39.786;2022-08-11T13:44:07;100656.09;;;26.62;45.10
49627;BME280;35527;54.616;39.786;2022-08-11T13:47:12;100646.56;;;26.69;46.29
49627;BME280;35527;54.616;39.786;2022-08-11T13:50:16;100642.84;;;26.89;45.72
49627;BME280;35527;54.616;39.786;2022-08-11T13:53:24;100653.34;;;26.91;44.59
49627;BME280;35527;54.616;39.786;2022-08-11T13:56:32;100649.66;;;26.64;45.48
49627;BME280;35527;54.616;39.786;2022-08-11T13:59:37;100647.63;;;26.86;45.02
49627;BME280;35527;54.616;39.786;2022-08-11T14:02:44;100646.44;;;27.08;43.87
49627;BME280;35527;54.616;39.786;2022-08-11T14:05:51;100648.34;;;26.88;44.69
49627;BME280;35527;54.616;39.786;2022-08-11T14:08:55;100630.78;;;26.67;45.02
49627;BME280;35527;54.616;39.786;2022-08-11T14:12:02;100640.13;;;26.71;46.20
49627;BME280;35527;54.616;39.786;2022-08-11T14:15:34;100640.41;;;26.68;44.33
49627;BME280;35527;54.616;39.786;2022-08-11T14:18:43;100635.94;;;26.49;44.74
49627;BME280;35527;54.616;39.786;2022-08-11T14:21:48;100631.22;;;26.43;44.77
49627;BME280;35527;54.616;39.786;2022-08-11T14:25:13;100628.84;;;26.40;45.47
49627;BME280;35527;54.616;39.786;2022-08-11T14:28:19;100622.56;;;26.32;47.26
49627;BME280;35527;54.616;39.786;2022-08-11T14:31:23;100624.81;;;26.17;47.20
49627;BME280;35527;54.616;39.786;2022-08-11T14:34:29;100619.63;;;26.15;48.91
49627;BME280;35527;54.616;39.786;2022-08-11T14:37:35;100631.78;;;26.18;47.60
49627;BME280;35527;54.616;39.786;2022-08-11T14:40:42;100633.06;;;26.14;48.37
49627;BME280;35527;54.616;39.786;2022-08-11T14:44:09;100623.16;;;25.96;48.37
49627;BME280;35527;54.616;39.786;2022-08-11T14:47:34;100630.22;;;25.76;47.70
49627;BME280;35527;54.616;39.786;2022-08-11T14:50:39;100622.25;;;25.67;48.69
49627;BME280;35527;54.616;39.786;2022-08-11T14:53:46;100623.22;;;25.56;48.46
49627;BME280;35527;54.616;39.786;2022-08-11T14:57:11;100613.56;;;25.45;49.52
49627;BME280;35527;54.616;39.786;2022-08-11T15:00:16;100616.78;;;25.39;49.39
49627;BME280;35527;54.616;39.786;2022-08-11T15:03:21;100617.72;;;25.38;50.18
49627;BME280;35527;54.616;39.786;2022-08-11T15:06:30;100616.16;;;25.26;50.24
49627;BME280;35527;54.616;39.786;2022-08-11T15:09:35;100618.88;;;25.05;49.79
49627;BME280;35527;54.616;39.786;2022-08-11T15:12:48;100615.88;;;24.88;52.47
49627;BME280;35527;54.616;39.786;2022-08-11T15:15:53;100595.31;;;24.81;51.07
49627;BME280;35527;54.616;39.786;2022-08-11T15:19:18;100615.22;;;24.96;51.62
49627;BME280;35527;54.616;39.786;2022-08-11T15:22:23;100622.44;;;24.94;52.55
49627;BME280;35527;54.616;39.786;2022-08-11T15:25:49;100620.19;;;24.89;53.02
49627;BME280;35527;54.616;39.786;2022-08-11T15:28:56;100622.78;;;24.80;52.58
49627;BME280;35527;54.616;39.786;2022-08-11T15:32:21;100604.41;;;24.57;52.18
49627;BME280;35527;54.616;39.786;2022-08-11T15:35:46;100640.56;;;24.68;53.44
49627;BME280;35527;54.616;39.786;2022-08-11T15:39:18;100629.94;;;24.58;54.62
49627;BME280;35527;54.616;39.786;2022-08-11T15:42:26;100619.19;;;24.39;54.45
49627;BME280;35527;54.616;39.786;2022-08-11T15:45:52;100638.81;;;24.36;56.10
49627;BME280;35527;54.616;39.786;2022-08-11T15:49:28;100629.69;;;24.29;54.36
49627;BME280;35527;54.616;39.786;2022-08-11T15:53:02;100612.47;;;24.14;55.88
49627;BME280;35527;54.616;39.786;2022-08-11T15:56:05;100607.81;;;24.06;55.93
49627;BME280;35527;54.616;39.786;2022-08-11T15:59:11;100613.22;;;24.04;53.56
49627;BME280;35527;54.616;39.786;2022-08-11T16:02:38;100637.34;;;24.11;53.14
49627;BME280;35527;54.616;39.786;2022-08-11T16:05:57;100629.81;;;24.07;55.86
49627;BME280;35527;54.616;39.786;2022-08-11T16:09:02;100630.56;;;23.97;56.30
49627;BME280;35527;54.616;39.786;2022-08-11T16:12:12;100623.91;;;23.82;58.83
49627;BME280;35527;54.616;39.786;2022-08-11T16:15:20;100630.88;;;23.72;58.88
49627;BME280;35527;54.616;39.786;2022-08-11T16:18:45;100636.41;;;23.57;59.25
49627;BME280;35527;54.616;39.786;2022-08-11T16:21:52;100631.16;;;23.46;61.51
49627;BME280;35527;54.616;39.786;2022-08-11T16:24:56;100626.59;;;23.37;62.43
49627;BME280;35527;54.616;39.786;2022-08-11T16:28:05;100611.84;;;23.23;62.86
49627;BME280;35527;54.616;39.786;2022-08-11T16:31:09;100605.63;;;23.13;64.99
49627;BME280;35527;54.616;39.786;2022-08-11T16:34:14;100584.81;;;22.86;65.30
49627;BME280;35527;54.616;39.786;2022-08-11T16:37:39;100614.94;;;22.94;65.45
49627;BME280;35527;54.616;39.786;2022-08-11T16:41:08;100632.72;;;22.92;66.70
49627;BME280;35527;54.616;39.786;2022-08-11T16:44:14;100615.78;;;22.73;66.31
49627;BME280;35527;54.616;39.786;2022-08-11T16:47:37;100632.56;;;22.71;67.01
49627;BME280;35527;54.616;39.786;2022-08-11T16:50:40;100633.19;;;22.64;68.74
49627;BME280;35527;54.616;39.786;2022-08-11T16:53:47;100612.75;;;22.43;69.22
49627;BME280;35527;54.616;39.786;2022-08-11T16:56:52;100625.44;;;22.38;69.74
49627;BME280;35527;54.616;39.786;2022-08-11T17:00:02;100641.28;;;22.38;71.28
49627;BME280;35527;54.616;39.786;2022-08-11T17:03:07;100632.50;;;22.26;70.21
49627;BME280;35527;54.616;39.786;2022-08-11T17:06:34;100631.78;;;22.12;70.80
49627;BME280;35527;54.616;39.786;2022-08-11T17:10:03;100636.34;;;22.10;71.16
49627;BME280;35527;54.616;39.786;2022-08-11T17:13:40;100617.78;;;21.87;72.23
49627;BME280;35527;54.616;39.786;2022-08-11T17:16:44;100633.47;;;21.89;72.57
49627;BME280;35527;54.616;39.786;2022-08-11T17:19:53;100644.38;;;21.84;72.99
49627;BME280;35527;54.616;39.786;2022-08-11T17:23:00;100649.56;;;21.73;74.73
49627;BME280;35527;54.616;39.786;2022-08-11T17:29:57;100641.97;;;21.44;76.52
49627;BME280;35527;54.616;39.786;2022-08-11T17:33:00;100653.66;;;21.40;77.53
49627;BME280;35527;54.616;39.786;2022-08-11T17:36:22;100646.81;;;21.25;77.55
49627;BME280;35527;54.616;39.786;2022-08-11T17:39:28;100646.41;;;21.18;78.68
49627;BME280;35527;54.616;39.786;2022-08-11T17:42:34;100663.69;;;21.22;79.25
49627;BME280;35527;54.616;39.786;2022-08-11T17:45:58;100671.03;;;21.17;80.21
49627;BME280;35527;54.616;39.786;2022-08-11T17:49:20;100671.91;;;21.05;82.14
49627;BME280;35527;54.616;39.786;2022-08-11T17:52:25;100674.00;;;21.00;83.21
49627;BME280;35527;54.616;39.786;2022-08-11T17:55:53;100669.91;;;20.96;83.74
49627;BME280;35527;54.616;39.786;2022-08-11T17:59:16;100669.69;;;20.86;83.22
49627;BME280;35527;54.616;39.786;2022-08-11T18:02:40;100663.03;;;20.80;82.93
49627;BME280;35527;54.616;39.786;2022-08-11T18:06:13;100662.88;;;20.83;83.03
49627;BME280;35527;54.616;39.786;2022-08-11T18:09:18;100669.28;;;20.79;81.80
49627;BME280;35527;54.616;39.786;2022-08-11T18:12:43;100654.00;;;20.59;83.51
49627;BME280;35527;54.616;39.786;2022-08-11T18:16:11;100682.09;;;20.58;83.99
49627;BME280;35527;54.616;39.786;2022-08-11T18:19:34;100677.50;;;20.47;85.44
49627;BME280;35527;54.616;39.786;2022-08-11T18:22:56;100683.06;;;20.43;85.12
49627;BME280;35527;54.616;39.786;2022-08-11T18:26:24;100688.72;;;20.37;85.25
49627;BME280;35527;54.616;39.786;2022-08-11T18:29:49;100683.88;;;20.31;85.68
49627;BME280;35527;54.616;39.786;2022-08-11T18:33:13;100670.59;;;20.19;85.95
49627;BME280;35527;54.616;39.786;2022-08-11T18:37:03;100684.69;;;20.18;88.48
49627;BME280;35527;54.616;39.786;2022-08-11T18:40:30;100676.09;;;20.02;88.21
49627;BME280;35527;54.616;39.786;2022-08-11T18:43:58;100694.78;;;20.12;87.28
49627;BME280;35527;54.616;39.786;2022-08-11T18:47:21;100679.56;;;20.02;87.99
49627;BME280;35527;54.616;39.786;2022-08-11T18:50:49;100694.72;;;19.99;88.21
49627;BME280;35527;54.616;39.786;2022-08-11T18:54:18;100670.84;;;19.75;89.04
49627;BME280;35527;54.616;39.786;2022-08-11T18:57:41;100677.97;;;19.73;89.75
49627;BME280;35527;54.616;39.786;2022-08-11T19:01:18;100691.03;;;19.74;89.58
49627;BME280;35527;54.616;39.786;2022-08-11T19:04:41;100689.25;;;19.75;89.59
49627;BME280;35527;54.616;39.786;2022-08-11T19:08:11;100673.38;;;19.62;89.69
49627;BME280;35527;54.616;39.786;2022-08-11T19:11:42;100686.69;;;19.59;90.36
49627;BME280;35527;54.616;39.786;2022-08-11T19:15:06;100677.34;;;19.55;90.96
49627;BME280;35527;54.616;39.786;2022-08-11T19:18:29;100690.47;;;19.55;91.59
49627;BME280;35527;54.616;39.786;2022-08-11T19:21:54;100694.31;;;19.49;91.93
49627;BME280;35527;54.616;39.786;2022-08-11T19:25:19;100668.47;;;19.29;92.83
49627;BME280;35527;54.616;39.786;2022-08-11T19:28:43;100694.41;;;19.33;93.38
49627;BME280;35527;54.616;39.786;2022-08-11T19:32:07;100687.03;;;19.26;94.97
49627;BME280;35527;54.616;39.786;2022-08-11T19:35:34;100678.97;;;19.15;95.03
49627;BME280;35527;54.616;39.786;2022-08-11T19:38:57;100693.00;;;19.13;96.07
49627;BME280;35527;54.616;39.786;2022-08-11T19:42:25;100702.25;;;19.05;96.99
49627;BME280;35527;54.616;39.786;2022-08-11T19:45:50;100702.81;;;18.96;98.00
49627;BME280;35527;54.616;39.786;2022-08-11T19:49:12;100681.25;;;18.76;98.94
49627;BME280;35527;54.616;39.786;2022-08-11T19:52:35;100683.09;;;18.74;99.68
49627;BME280;35527;54.616;39.786;2022-08-11T19:55:58;100687.84;;;18.67;100.00
49627;BME280;35527;54.616;39.786;2022-08-11T19:59:20;100704.22;;;18.71;100.00
49627;BME280;35527;54.616;39.786;2022-08-11T20:02:43;100707.97;;;18.67;100.00